createdAt,value
2023-04-02T00:09:46.868Z,98399.28
2023-04-02T00:19:52.542Z,98425.50
2023-04-02T00:29:55.562Z,98438.91
2023-04-02T00:40:16.837Z,98456.47
2023-04-02T00:50:26.486Z,98477.75
2023-04-02T01:00:29.212Z,98480.22
2023-04-02T01:10:37.040Z,98496.75
2023-04-02T01:21:06.398Z,98512.63
2023-04-02T01:31:07.947Z,98538.66
2023-04-02T01:41:18.226Z,98558.84
2023-04-02T01:51:29.028Z,98567.34
2023-04-02T02:01:36.335Z,98580.13
2023-04-02T02:11:37.789Z,98611.06
2023-04-02T02:21:49.751Z,98619.53
2023-04-02T02:31:52.895Z,98636.41
2023-04-02T02:41:57.754Z,98650.66
2023-04-02T02:52:08.291Z,98676.19
2023-04-02T03:02:09.944Z,98698.22
2023-04-02T03:12:36.470Z,98713.69
2023-04-02T03:22:59.785Z,98728.28
2023-04-02T03:33:12.821Z,98760.00
2023-04-02T03:43:21.973Z,98776.91
2023-04-02T03:53:24.645Z,98800.78
2023-04-02T04:03:45.099Z,98827.34
2023-04-02T04:13:50.209Z,98836.19
2023-04-02T04:23:51.774Z,98863.53
2023-04-02T04:33:54.901Z,98881.25
2023-04-02T04:44:17.854Z,98897.66
2023-04-02T04:54:20.062Z,98927.47
2023-04-02T05:04:27.616Z,98949.00
2023-04-02T05:14:33.804Z,98978.38
2023-04-02T05:24:47.345Z,98993.25
2023-04-02T05:34:51.541Z,99010.00
2023-04-02T05:45:20.314Z,99036.63
2023-04-02T05:56:05.513Z,99056.00
2023-04-02T06:06:14.734Z,99079.38
2023-04-02T06:16:16.513Z,99103.31
2023-04-02T06:26:33.047Z,99127.09
2023-04-02T06:36:34.810Z,99161.44
2023-04-02T06:46:52.523Z,99170.94
2023-04-02T06:56:56.360Z,99194.50
2023-04-02T07:06:57.924Z,99213.25
2023-04-02T07:16:59.491Z,99225.84
2023-04-02T07:27:00.955Z,99266.31
2023-04-02T07:37:02.594Z,99289.91
2023-04-02T07:47:04.284Z,99302.56
2023-04-02T07:57:06.187Z,99325.75
2023-04-02T08:07:07.843Z,99340.22
2023-04-02T08:17:09.437Z,99359.84
2023-04-02T08:27:13.721Z,99384.28
2023-04-02T08:37:15.511Z,99423.34
2023-04-02T08:47:17.408Z,99432.22
2023-04-02T08:57:25.026Z,99459.97
2023-04-02T09:07:26.965Z,99477.16
2023-04-02T09:17:30.023Z,99496.59
2023-04-02T09:27:34.298Z,99517.69
2023-04-02T09:37:37.390Z,99531.97
2023-04-02T09:47:40.268Z,99564.84
2023-04-02T09:57:43.778Z,99584.75
2023-04-02T10:07:49.206Z,99608.19
2023-04-02T10:17:57.653Z,99625.59
2023-04-02T10:28:17.670Z,99640.72
2023-04-02T10:38:38.682Z,99663.09
2023-04-02T10:48:52.439Z,99665.50
2023-04-02T10:58:57.467Z,99680.84
2023-04-02T11:09:01.195Z,99703.84
2023-04-02T11:19:14.819Z,99731.69
2023-04-02T11:29:21.614Z,99747.53
2023-04-02T11:39:45.797Z,99765.34
2023-04-02T11:50:19.700Z,99777.22
2023-04-02T12:00:27.363Z,99789.84
2023-04-02T12:10:32.602Z,99787.53
2023-04-02T12:20:34.406Z,99803.84
2023-04-02T12:30:37.247Z,99831.09
2023-04-02T12:40:38.864Z,99822.16
2023-04-02T12:50:41.664Z,99851.50
2023-04-02T13:00:43.266Z,99847.50
2023-04-02T13:10:44.774Z,99851.03
2023-04-02T13:21:05.717Z,99863.94
2023-04-02T13:31:17.731Z,99875.81
2023-04-02T13:41:27.286Z,99897.00
2023-04-02T13:51:38.964Z,99898.78
2023-04-02T14:01:41.431Z,99932.97
2023-04-02T14:12:15.047Z,99939.44
2023-04-02T14:22:26.643Z,99957.97
2023-04-02T14:32:55.526Z,99981.44
2023-04-02T14:43:08.190Z,99992.63
2023-04-02T14:53:15.715Z,100014.16
2023-04-02T15:03:21.961Z,100019.78
2023-04-02T15:13:28.461Z,100028.50
2023-04-02T15:24:02.076Z,100038.28
2023-04-02T15:34:06.110Z,100050.88
2023-04-02T15:44:10.895Z,100054.09
2023-04-02T15:54:30.980Z,100068.03
2023-04-02T16:04:53.363Z,100076.00
2023-04-02T16:14:55.635Z,100089.75
2023-04-02T16:25:01.633Z,100099.66
2023-04-02T16:45:47.901Z,100123.16
2023-04-02T16:55:49.312Z,100131.72
2023-04-02T17:05:55.858Z,100154.88
2023-04-02T17:16:11.929Z,100168.13
2023-04-02T17:26:13.384Z,100169.81
2023-04-02T17:36:35.173Z,100192.44
2023-04-02T17:47:18.395Z,100212.03
2023-04-02T17:57:42.496Z,100228.63
2023-04-02T18:07:49.171Z,100235.47
2023-04-02T18:17:54.013Z,100248.38
2023-04-02T18:28:08.586Z,100266.13
2023-04-02T18:38:19.204Z,100282.69
2023-04-02T18:48:48.158Z,100291.88
2023-04-02T18:58:56.686Z,100304.09
2023-04-02T19:09:03.638Z,100315.28
2023-04-02T19:19:26.966Z,100329.34
2023-04-02T19:29:50.224Z,100353.13
2023-04-02T19:40:19.425Z,100351.25
2023-04-02T19:50:21.140Z,100372.28
2023-04-02T20:00:22.553Z,100384.66
2023-04-02T20:10:24.243Z,100395.16
2023-04-02T20:20:25.975Z,100390.44
2023-04-02T20:30:27.409Z,100387.25
2023-04-02T20:40:29.130Z,100410.66
2023-04-02T20:50:30.739Z,100415.78
2023-04-02T21:00:32.160Z,100436.69
2023-04-02T21:10:33.880Z,100443.19
2023-04-02T21:20:35.606Z,100454.91
2023-04-02T21:30:37.033Z,100456.06
2023-04-02T21:40:38.466Z,100453.97
2023-04-02T21:50:39.894Z,100459.66
2023-04-02T22:00:41.344Z,100467.25
2023-04-02T22:10:42.914Z,100468.13
2023-04-02T22:20:45.052Z,100472.06
2023-04-02T22:30:46.532Z,100478.19
2023-04-02T22:40:48.121Z,100496.56
2023-04-02T22:50:50.484Z,100502.19
2023-04-02T23:00:51.871Z,100513.72
2023-04-02T23:11:05.669Z,100525.75
2023-04-02T23:21:07.161Z,100522.94
2023-04-02T23:31:11.040Z,100523.88
2023-04-02T23:41:14.540Z,100517.28
2023-04-02T23:51:16.320Z,100523.06
